createdAt,value
2019-03-24T00:04:12.603Z,51.90
2019-03-24T00:09:16.009Z,55.57
2019-03-24T00:14:18.476Z,49.73
2019-03-24T00:19:22.077Z,46.37
2019-03-24T00:24:25.525Z,53.43
2019-03-24T00:29:28.305Z,51.40
2019-03-24T00:34:30.768Z,44.90
2019-03-24T00:39:34.944Z,44.53
2019-03-24T00:44:37.967Z,46.87
2019-03-24T00:49:40.463Z,44.80
2019-03-24T00:54:43.649Z,43.23
2019-03-24T00:59:46.424Z,40.63
2019-03-24T01:04:48.961Z,40.70
2019-03-24T01:09:51.309Z,33.83
2019-03-24T01:14:54.271Z,35.53
2019-03-24T01:19:56.994Z,34.83
2019-03-24T01:24:59.825Z,29.70
2019-03-24T01:30:03.828Z,36.07
2019-03-24T01:35:07.017Z,41.50
2019-03-24T01:40:09.980Z,39.13
2019-03-24T01:45:12.670Z,40.60
2019-03-24T01:50:15.343Z,37.70
2019-03-24T01:55:17.709Z,32.37
2019-03-24T02:00:20.945Z,39.03
2019-03-24T02:05:23.463Z,38.33
2019-03-24T02:10:26.197Z,41.60
2019-03-24T02:15:29.354Z,40.73
2019-03-24T02:20:32.137Z,39.83
2019-03-24T02:25:34.813Z,34.03
2019-03-24T02:30:37.958Z,32.83
2019-03-24T02:35:41.147Z,35.43
2019-03-24T02:40:43.541Z,35.83
2019-03-24T02:45:46.012Z,28.60
2019-03-24T02:50:48.472Z,28.00
2019-03-24T02:55:50.812Z,28.03
2019-03-24T03:00:53.452Z,32.17
2019-03-24T03:05:56.133Z,29.43
2019-03-24T03:10:58.841Z,29.43
2019-03-24T03:16:01.277Z,28.40
2019-03-24T03:21:05.209Z,26.30
2019-03-24T03:26:08.314Z,23.90
2019-03-24T03:31:10.834Z,27.80
2019-03-24T03:36:14.003Z,26.43
2019-03-24T03:41:16.835Z,27.17
2019-03-24T03:46:19.625Z,25.03
2019-03-24T03:51:22.109Z,34.47
2019-03-24T03:56:25.231Z,35.60
2019-03-24T04:01:28.316Z,34.63
2019-03-24T04:06:31.734Z,27.57
2019-03-24T04:11:34.751Z,35.23
2019-03-24T04:16:37.550Z,38.83
2019-03-24T04:21:40.010Z,34.57
2019-03-24T04:26:42.352Z,32.87
2019-03-24T04:31:45.097Z,28.80
2019-03-24T04:36:47.540Z,33.50
2019-03-24T04:41:50.263Z,30.90
2019-03-24T04:46:52.935Z,28.27
2019-03-24T04:51:55.296Z,30.77
2019-03-24T04:56:58.828Z,31.80
2019-03-24T05:02:01.275Z,27.20
2019-03-24T05:07:04.311Z,32.57
2019-03-24T05:12:08.131Z,30.80
2019-03-24T05:17:10.596Z,27.73
2019-03-24T05:22:13.301Z,32.90
2019-03-24T05:27:15.748Z,28.27
2019-03-24T05:32:18.544Z,31.13
2019-03-24T05:37:20.905Z,28.27
2019-03-24T05:42:24.117Z,27.00
2019-03-24T05:47:36.640Z,27.23
2019-03-24T05:52:31.768Z,23.43
2019-03-24T05:57:34.738Z,31.97
2019-03-24T06:02:37.858Z,26.40
2019-03-24T06:07:40.740Z,28.77
2019-03-24T06:12:43.271Z,26.03
2019-03-24T06:17:48.053Z,25.83
2019-03-24T06:22:50.680Z,23.70
2019-03-24T06:27:53.606Z,19.83
2019-03-24T06:32:56.047Z,27.77
2019-03-24T06:37:58.424Z,17.10
2019-03-24T06:43:01.210Z,18.03
2019-03-24T06:48:03.909Z,17.63
2019-03-24T06:53:06.241Z,19.73
2019-03-24T06:58:09.717Z,13.50
2019-03-24T07:03:12.893Z,23.37
2019-03-24T07:08:15.966Z,16.67
2019-03-24T07:13:20.135Z,14.07
2019-03-24T07:18:22.667Z,18.57
2019-03-24T07:23:25.135Z,19.07
2019-03-24T07:28:28.078Z,22.00
2019-03-24T07:33:31.722Z,16.67
2019-03-24T07:38:34.213Z,16.63
2019-03-24T07:43:36.611Z,15.63
2019-03-24T07:48:39.107Z,12.50
2019-03-24T07:53:41.460Z,18.57
2019-03-24T07:58:45.930Z,14.70
2019-03-24T08:03:49.445Z,17.13
2019-03-24T08:08:52.143Z,13.53
2019-03-24T08:13:55.346Z,11.57
2019-03-24T08:18:58.323Z,14.03
2019-03-24T08:24:01.465Z,10.13
2019-03-24T08:29:04.869Z,15.67
2019-03-24T08:34:07.506Z,15.80
2019-03-24T08:39:10.582Z,12.53
2019-03-24T08:44:13.261Z,13.07
2019-03-24T08:49:16.988Z,10.90
2019-03-24T08:54:19.864Z,13.47
2019-03-24T08:59:23.228Z,14.37
2019-03-24T09:04:26.300Z,14.03
2019-03-24T09:09:29.102Z,10.10
2019-03-24T09:14:35.013Z,14.90
2019-03-24T09:19:38.928Z,15.17
2019-03-24T09:24:41.313Z,17.97
2019-03-24T09:29:44.298Z,15.90
2019-03-24T09:34:47.510Z,13.07
2019-03-24T09:39:50.406Z,10.50
2019-03-24T09:44:53.504Z,14.47
2019-03-24T09:49:56.131Z,12.90
2019-03-24T09:55:10.763Z,12.60
2019-03-24T10:00:14.458Z,9.87
2019-03-24T10:05:17.574Z,12.07
2019-03-24T10:10:21.503Z,9.90
2019-03-24T10:15:24.517Z,16.00
2019-03-24T10:20:28.251Z,9.10
2019-03-24T10:25:31.535Z,10.37
2019-03-24T10:30:35.035Z,12.77
2019-03-24T10:35:38.122Z,11.23
2019-03-24T10:40:41.763Z,10.67
2019-03-24T10:45:45.366Z,7.77
2019-03-24T10:50:48.433Z,14.33
2019-03-24T10:55:51.420Z,12.57
2019-03-24T11:00:54.423Z,8.87
2019-03-24T11:05:57.689Z,8.47
2019-03-24T11:11:01.731Z,9.47
2019-03-24T11:16:05.807Z,8.43
2019-03-24T11:21:09.416Z,10.20
2019-03-24T11:26:13.294Z,12.87
2019-03-24T11:31:17.135Z,8.80
2019-03-24T11:36:21.294Z,12.47
2019-03-24T11:41:24.986Z,9.53
2019-03-24T11:46:28.012Z,11.10
2019-03-24T11:51:31.912Z,10.97
2019-03-24T11:56:34.932Z,9.17
2019-03-24T12:01:38.677Z,9.83
2019-03-24T12:06:43.146Z,8.60
2019-03-24T12:11:47.213Z,8.23
2019-03-24T12:16:50.238Z,10.37
2019-03-24T12:21:53.893Z,7.30
2019-03-24T12:26:57.531Z,7.83
2019-03-24T12:32:01.668Z,8.00
2019-03-24T12:37:04.681Z,7.30
2019-03-24T12:42:07.692Z,7.63
2019-03-24T12:47:11.173Z,7.77
2019-03-24T12:52:16.330Z,8.77
2019-03-24T12:57:19.451Z,7.17
2019-03-24T13:02:22.584Z,6.37
2019-03-24T13:07:26.281Z,6.63
2019-03-24T13:12:29.650Z,7.67
2019-03-24T13:17:32.650Z,5.87
2019-03-24T13:22:36.399Z,4.20
2019-03-24T13:27:39.667Z,4.77
2019-03-24T13:32:43.306Z,9.43
2019-03-24T13:37:47.247Z,5.40
2019-03-24T13:42:50.465Z,6.57
2019-03-24T13:47:53.483Z,9.57
2019-03-24T13:52:58.186Z,7.87
2019-03-24T13:58:02.672Z,7.70
2019-03-24T14:03:10.161Z,10.50
2019-03-24T14:08:15.446Z,10.13
2019-03-24T14:13:19.452Z,9.43
2019-03-24T14:18:23.039Z,10.07
2019-03-24T14:23:26.345Z,11.97
2019-03-24T14:28:30.321Z,9.70
2019-03-24T14:33:35.251Z,8.43
2019-03-24T14:38:38.309Z,10.43
2019-03-24T14:43:41.274Z,7.77
2019-03-24T14:48:44.980Z,9.10
2019-03-24T14:53:48.357Z,8.47
2019-03-24T14:58:52.316Z,7.70
2019-03-24T15:03:55.659Z,15.73
2019-03-24T15:08:58.923Z,7.10
2019-03-24T15:14:02.568Z,9.10
2019-03-24T15:19:05.796Z,7.23
2019-03-24T15:24:09.435Z,9.60
2019-03-24T15:29:12.707Z,6.73
2019-03-24T15:34:15.764Z,7.83
2019-03-24T15:39:20.168Z,10.63
2019-03-24T15:44:23.182Z,7.57
2019-03-24T15:49:26.462Z,7.83
2019-03-24T15:54:30.134Z,8.13
2019-03-24T15:59:33.449Z,9.97
2019-03-24T16:04:37.234Z,9.27
2019-03-24T16:09:40.666Z,11.70
2019-03-24T16:14:43.804Z,10.73
2019-03-24T16:19:47.117Z,6.83
2019-03-24T16:24:50.706Z,10.03
2019-03-24T16:29:55.009Z,7.93
2019-03-24T16:34:58.297Z,9.00
2019-03-24T16:40:02.021Z,9.83
2019-03-24T16:45:07.036Z,7.40
2019-03-24T16:50:11.066Z,8.97
2019-03-24T16:55:14.311Z,11.47
2019-03-24T17:00:18.134Z,7.77
2019-03-24T17:05:21.198Z,9.13
2019-03-24T17:10:24.247Z,8.30
2019-03-24T17:15:27.335Z,11.07
2019-03-24T17:20:30.511Z,9.23
2019-03-24T17:25:34.417Z,9.20
2019-03-24T17:30:37.677Z,7.50
2019-03-24T17:35:41.073Z,8.17
2019-03-24T17:40:44.341Z,11.80
2019-03-24T17:45:48.724Z,11.73
2019-03-24T17:50:52.152Z,11.20
2019-03-24T17:55:55.516Z,11.77
2019-03-24T18:00:58.769Z,7.23
2019-03-24T18:06:03.417Z,12.43
2019-03-24T18:11:06.533Z,13.17
2019-03-24T18:16:09.503Z,9.03
2019-03-24T18:21:13.246Z,8.27
2019-03-24T18:26:17.270Z,7.27
2019-03-24T18:31:21.264Z,10.87
2019-03-24T18:36:24.456Z,12.53
2019-03-24T18:41:27.801Z,9.97
2019-03-24T18:46:30.832Z,13.40
2019-03-24T18:51:33.913Z,11.03
2019-03-24T18:56:36.857Z,9.70
2019-03-24T19:01:40.151Z,10.83
2019-03-24T19:06:43.108Z,11.47
2019-03-24T19:11:46.108Z,15.03
2019-03-24T19:16:49.110Z,9.50
2019-03-24T19:21:53.163Z,12.43
2019-03-24T19:26:56.486Z,14.63
2019-03-24T19:31:59.822Z,13.53
2019-03-24T19:37:03.709Z,13.40
2019-03-24T19:42:06.951Z,16.13
2019-03-24T19:47:10.374Z,14.70
2019-03-24T19:52:14.102Z,15.87
2019-03-24T19:57:17.142Z,14.03
2019-03-24T20:02:21.305Z,11.10
2019-03-24T20:07:24.317Z,12.60
2019-03-24T20:12:27.932Z,10.27
2019-03-24T20:17:31.645Z,12.93
2019-03-24T20:22:35.062Z,16.13
2019-03-24T20:27:38.634Z,16.17
2019-03-24T20:32:41.726Z,34.27
2019-03-24T20:37:45.078Z,13.50
2019-03-24T20:42:48.140Z,13.87
2019-03-24T20:47:51.117Z,17.93
2019-03-24T20:53:03.640Z,14.77
2019-03-24T20:58:00.551Z,13.90
2019-03-24T21:03:07.396Z,15.63
2019-03-24T21:08:10.789Z,13.40
2019-03-24T21:13:14.866Z,11.97
2019-03-24T21:18:18.098Z,12.13
2019-03-24T21:23:29.430Z,13.80
2019-03-24T21:28:26.611Z,14.23
2019-03-24T21:33:29.582Z,16.20
2019-03-24T21:38:32.573Z,17.43
2019-03-24T21:43:35.927Z,14.57
2019-03-24T21:48:39.895Z,15.93
2019-03-24T21:53:43.834Z,14.43
2019-03-24T21:58:47.808Z,16.77
2019-03-24T22:03:51.436Z,14.50
2019-03-24T22:08:54.407Z,13.07
2019-03-24T22:13:58.835Z,16.83
2019-03-24T22:19:02.486Z,13.27
2019-03-24T22:24:06.095Z,18.13
2019-03-24T22:29:09.928Z,16.07
2019-03-24T22:34:13.235Z,19.00
2019-03-24T22:39:16.879Z,15.03
2019-03-24T22:44:19.851Z,19.00
2019-03-24T22:49:23.366Z,15.80
2019-03-24T22:54:27.157Z,16.57
2019-03-24T22:59:30.804Z,12.17
2019-03-24T23:04:34.380Z,17.67
2019-03-24T23:09:37.361Z,18.03
2019-03-24T23:14:40.641Z,12.90
2019-03-24T23:19:43.977Z,11.80
2019-03-24T23:24:47.264Z,20.97
2019-03-24T23:29:50.911Z,16.10
2019-03-24T23:34:54.588Z,14.53
2019-03-24T23:39:58.312Z,13.73
2019-03-24T23:45:01.837Z,15.53
2019-03-24T23:50:06.880Z,13.90
2019-03-24T23:55:10.391Z,25.00
